Delta Virtual Airport Information Service

Boise Airport

ICAO: KBOI Country: United States
Latitude: 43.5644 Longitude: -116.222
Latest Arrival : DAL6149961 (KDEN-KBOI) Latest Departure : DAL6149961 (KBOI-KLAX)


WX CaptureLIVE
Data provided by noaa.gov | Fetched at 15:02:59

METAR : KBOI 091953Z 31008G17KT 240V350 10SM CLR 28/07 A3008 RMK AO2 SLP159 T02780067

TAF : KBOI 091738Z 0918/1018 32012G20KT P6SM SKC FM100300 30008KT P6SM SKC FM100700 VRB04KT P6SM SKC


Runway Data for KBOI
Data provided by openaviationdata.com

Runway ID Mag Var Hdg Length Elevation Surface ILS Freq ILS Id ILS Slope
10L 17 98° 9986 ft 2870 ft Asphalt -- -- --
10R 17 98° 9750 ft 2870 ft Asphalt 111.1 IBOI 3
28L 17 278° 9750 ft 2870 ft Asphalt -- -- --
28R 17 278° 9986 ft 2870 ft Asphalt -- -- --

Boise Airport, United States
Use only for reference purposes



Not for navigational purposes.